createdAt,value
2023-05-21T00:00:28.454Z,98641.56
2023-05-21T00:02:54.699Z,98633.75
2023-05-21T00:05:20.865Z,98632.69
2023-05-21T00:07:47.317Z,98633.50
2023-05-21T00:10:13.470Z,98620.34
2023-05-21T00:12:39.626Z,98620.34
2023-05-21T00:15:05.796Z,98622.00
2023-05-21T00:17:31.964Z,98620.34
2023-05-21T00:19:58.140Z,98611.47
2023-05-21T00:22:24.282Z,98608.78
2023-05-21T00:24:50.425Z,98603.44
2023-05-21T00:27:16.605Z,98598.09
2023-05-21T00:29:44.220Z,98596.44
2023-05-21T00:32:10.776Z,98598.09
2023-05-21T00:34:37.033Z,98587.38
2023-05-21T00:37:03.223Z,98590.91
2023-05-21T00:39:29.347Z,98591.09
2023-05-21T00:41:55.477Z,98591.09
2023-05-21T00:44:21.632Z,98589.22
2023-05-21T00:46:47.779Z,98584.91
2023-05-21T00:49:14.028Z,98586.56
2023-05-21T00:51:40.206Z,98572.34
2023-05-21T00:54:06.341Z,98577.50
2023-05-21T00:56:32.471Z,98576.06
2023-05-21T00:58:58.634Z,98579.56
2023-05-21T01:01:24.823Z,98582.00
2023-05-21T01:03:50.976Z,98580.38
2023-05-21T01:06:17.144Z,98574.41
2023-05-21T01:08:43.284Z,98576.88
2023-05-21T01:11:09.427Z,98568.84
2023-05-21T01:13:35.585Z,98561.84
2023-05-21T01:16:01.718Z,98560.00
2023-05-21T01:18:27.902Z,98563.50
2023-05-21T01:20:54.101Z,98568.84
2023-05-21T01:23:20.251Z,98568.03
2023-05-21T01:25:46.377Z,98561.84
2023-05-21T01:28:12.602Z,98570.72
2023-05-21T01:30:38.743Z,98575.22
2023-05-21T01:33:04.993Z,98566.38
2023-05-21T01:35:31.377Z,98565.34
2023-05-21T01:37:57.519Z,98561.84
2023-05-21T01:40:23.681Z,98550.31
2023-05-21T01:42:49.847Z,98559.16
2023-05-21T01:45:16.079Z,98547.84
2023-05-21T01:47:42.268Z,98555.66
2023-05-21T01:50:08.528Z,98553.81
2023-05-21T01:52:34.654Z,98544.13
2023-05-21T01:55:00.790Z,98551.34
2023-05-21T01:57:27.345Z,98551.34
2023-05-21T01:59:53.499Z,98541.47
2023-05-21T02:02:19.693Z,98546.00
2023-05-21T02:04:45.853Z,98550.53
2023-05-21T02:07:11.992Z,98555.91
2023-05-21T02:09:38.132Z,98540.84
2023-05-21T02:12:04.290Z,98548.69
2023-05-21T02:14:30.429Z,98544.34
2023-05-21T02:16:56.556Z,98541.66
2023-05-21T02:19:22.774Z,98548.69
2023-05-21T02:21:48.966Z,98535.47
2023-05-21T02:24:15.122Z,98532.59
2023-05-21T02:26:41.281Z,98541.66
2023-05-21T02:29:07.431Z,98542.69
2023-05-21T02:31:33.588Z,98538.16
2023-05-21T02:33:59.780Z,98541.66
2023-05-21T02:36:25.953Z,98546.81
2023-05-21T02:38:52.086Z,98539.22
2023-05-21T02:41:18.262Z,98529.31
2023-05-21T02:43:44.396Z,98529.31
2023-05-21T02:46:10.602Z,98537.34
2023-05-21T02:48:36.793Z,98536.31
2023-05-21T02:51:02.974Z,98537.34
2023-05-21T02:53:29.138Z,98533.00
2023-05-21T02:55:55.289Z,98535.69
2023-05-21T02:58:21.429Z,98535.69
2023-05-21T03:00:47.594Z,98532.19
2023-05-21T03:03:13.797Z,98526.84
2023-05-21T03:05:40.005Z,98531.38
2023-05-21T03:08:06.197Z,98532.19
2023-05-21T03:10:32.372Z,98532.19
2023-05-21T03:12:58.574Z,98535.09
2023-05-21T03:15:24.766Z,98536.72
2023-05-21T03:17:50.969Z,98534.88
2023-05-21T03:20:17.160Z,98533.00
2023-05-21T03:22:43.316Z,98528.69
2023-05-21T03:25:09.478Z,98515.31
2023-05-21T03:27:35.619Z,98517.97
2023-05-21T03:30:01.769Z,98524.38
2023-05-21T03:32:27.996Z,98522.53
2023-05-21T03:34:54.149Z,98517.38
2023-05-21T03:37:20.280Z,98516.34
2023-05-21T03:39:46.522Z,98518.19
2023-05-21T03:42:12.663Z,98520.03
2023-05-21T03:44:38.817Z,98525.41
2023-05-21T03:47:04.983Z,98522.72
2023-05-21T03:49:31.106Z,98524.38
2023-05-21T03:51:57.246Z,98526.22
2023-05-21T03:54:23.423Z,98521.09
2023-05-21T03:56:49.605Z,98529.13
2023-05-21T03:59:15.768Z,98519.22
2023-05-21T04:01:41.997Z,98526.22
2023-05-21T04:04:08.291Z,98529.75
2023-05-21T04:06:34.510Z,98520.03
2023-05-21T04:09:00.705Z,98518.19
2023-05-21T04:11:26.971Z,98514.69
2023-05-21T04:13:54.891Z,98515.75
2023-05-21T04:16:21.089Z,98521.91
2023-05-21T04:18:47.753Z,98518.41
2023-05-21T04:21:16.162Z,98518.41
2023-05-21T04:23:42.341Z,98521.91
2023-05-21T04:26:08.513Z,98528.31
2023-05-21T04:28:34.652Z,98533.66
2023-05-21T04:31:00.867Z,98532.81
2023-05-21T04:33:27.078Z,98528.50
2023-05-21T04:35:53.227Z,98532.00
2023-05-21T04:38:19.382Z,98532.81
2023-05-21T04:40:45.527Z,98533.03
2023-05-21T04:43:11.652Z,98536.53
2023-05-21T04:45:38.014Z,98540.84
2023-05-21T04:48:04.455Z,98539.22
2023-05-21T04:50:30.699Z,98533.84
2023-05-21T04:52:56.976Z,98534.88
2023-05-21T04:55:23.254Z,98528.69
2023-05-21T04:57:49.393Z,98527.69
2023-05-21T05:00:15.566Z,98519.84
2023-05-21T05:02:41.758Z,98515.31
2023-05-21T05:05:07.939Z,98519.03
2023-05-21T05:07:34.123Z,98519.03
2023-05-21T05:10:00.305Z,98504.59
2023-05-21T05:12:26.440Z,98516.38
2023-05-21T05:14:52.621Z,98511.00
2023-05-21T05:17:18.897Z,98512.88
2023-05-21T05:19:45.064Z,98517.19
2023-05-21T05:22:13.336Z,98510.19
2023-05-21T05:24:39.706Z,98509.16
2023-05-21T05:27:05.910Z,98515.31
2023-05-21T05:29:32.204Z,98520.66
2023-05-21T05:31:58.483Z,98512.63
2023-05-21T05:34:24.630Z,98516.38
2023-05-21T05:36:50.813Z,98511.81
2023-05-21T05:39:16.941Z,98513.88
2023-05-21T05:41:43.200Z,98510.19
2023-05-21T05:44:10.936Z,98506.66
2023-05-21T05:46:37.338Z,98509.34
2023-05-21T05:49:03.590Z,98506.91
2023-05-21T05:51:29.765Z,98513.88
2023-05-21T05:53:55.955Z,98514.94
2023-05-21T05:56:22.086Z,98511.22
2023-05-21T05:58:48.287Z,98510.38
2023-05-21T06:01:14.426Z,98504.22
2023-05-21T06:03:40.707Z,98508.75
2023-05-21T06:06:07.090Z,98505.22
2023-05-21T06:08:34.493Z,98519.47
2023-05-21T06:11:02.258Z,98513.25
2023-05-21T06:13:28.426Z,98512.44
2023-05-21T06:15:54.647Z,98506.28
2023-05-21T06:18:20.796Z,98511.63
2023-05-21T06:20:46.965Z,98513.50
2023-05-21T06:23:13.137Z,98515.13
2023-05-21T06:25:39.386Z,98511.63
2023-05-21T06:28:05.725Z,98506.28
2023-05-21T06:30:31.895Z,98502.56
2023-05-21T06:32:58.085Z,98509.16
2023-05-21T06:35:24.456Z,98504.66
2023-05-21T06:37:55.124Z,98495.78
2023-05-21T06:40:21.381Z,98506.28
2023-05-21T06:42:47.656Z,98505.47
2023-05-21T06:45:13.811Z,98513.50
2023-05-21T06:47:40.010Z,98516.16
2023-05-21T06:50:06.315Z,98513.25
2023-05-21T06:52:32.466Z,98513.50
2023-05-21T06:54:58.628Z,98508.34
2023-05-21T06:57:24.793Z,98508.34
2023-05-21T06:59:50.939Z,98497.63
2023-05-21T07:02:17.137Z,98502.97
2023-05-21T07:04:43.349Z,98496.81
2023-05-21T07:07:09.514Z,98492.28
2023-05-21T07:09:35.662Z,98496.63
2023-05-21T07:12:02.202Z,98495.78
2023-05-21T07:14:28.376Z,98497.63
2023-05-21T07:16:54.565Z,98499.28
2023-05-21T07:19:20.925Z,98494.75
2023-05-21T07:21:47.690Z,98493.94
2023-05-21T07:24:13.903Z,98492.91
2023-05-21T07:26:40.087Z,98495.56
2023-05-21T07:29:06.322Z,98495.56
2023-05-21T07:31:32.592Z,98494.97
2023-05-21T07:33:58.845Z,98495.16
2023-05-21T07:36:24.976Z,98496.00
2023-05-21T07:38:51.205Z,98497.63
2023-05-21T07:41:18.833Z,98500.31
2023-05-21T07:43:45.161Z,98502.16
2023-05-21T07:46:11.335Z,98505.66
2023-05-21T07:48:37.574Z,98503.81
2023-05-21T07:51:03.737Z,98510.00
2023-05-21T07:53:29.892Z,98505.66
2023-05-21T07:55:56.047Z,98500.31
2023-05-21T07:58:22.174Z,98514.50
2023-05-21T08:00:48.399Z,98512.06
2023-05-21T08:03:14.670Z,98513.69
2023-05-21T08:05:40.827Z,98517.19
2023-05-21T08:08:06.992Z,98512.69
2023-05-21T08:10:33.202Z,98518.03
2023-05-21T08:12:59.358Z,98521.53
2023-05-21T08:15:25.503Z,98519.03
2023-05-21T08:17:51.717Z,98524.19
2023-05-21T08:20:17.986Z,98517.19
2023-05-21T08:22:44.115Z,98516.16
2023-05-21T08:25:10.280Z,98516.16
2023-05-21T08:27:36.457Z,98511.63
2023-05-21T08:30:02.626Z,98513.50
2023-05-21T08:32:28.858Z,98517.81
2023-05-21T08:34:55.042Z,98509.78
2023-05-21T08:37:21.180Z,98507.09
2023-05-21T08:39:47.327Z,98509.56
2023-05-21T08:42:17.642Z,98517.59
2023-05-21T08:44:48.878Z,98518.63
2023-05-21T08:47:15.104Z,98517.00
2023-05-21T08:49:41.236Z,98508.97
2023-05-21T08:52:07.436Z,98518.84
2023-05-21T08:54:33.570Z,98519.66
2023-05-21T08:56:59.748Z,98518.63
2023-05-21T08:59:26.145Z,98512.25
2023-05-21T09:01:52.516Z,98517.59
2023-05-21T09:04:20.956Z,98514.94
2023-05-21T09:06:47.734Z,98509.56
2023-05-21T09:09:13.916Z,98512.25
2023-05-21T09:11:40.072Z,98515.75
2023-05-21T09:14:06.318Z,98506.91
2023-05-21T09:16:32.466Z,98504.00
2023-05-21T09:18:58.622Z,98504.59
2023-05-21T09:21:24.807Z,98505.44
2023-05-21T09:23:50.978Z,98507.53
2023-05-21T09:26:17.159Z,98505.66
2023-05-21T09:28:43.326Z,98511.81
2023-05-21T09:31:09.557Z,98511.63
2023-05-21T09:33:35.742Z,98509.97
2023-05-21T09:36:01.920Z,98508.09
2023-05-21T09:38:28.065Z,98508.09
2023-05-21T09:40:54.276Z,98508.09
2023-05-21T09:43:20.430Z,98511.63
2023-05-21T09:45:46.578Z,98506.28
2023-05-21T09:48:12.722Z,98507.09
2023-05-21T09:50:39.112Z,98511.41
2023-05-21T09:53:05.333Z,98506.03
2023-05-21T09:55:31.483Z,98506.88
2023-05-21T09:57:57.638Z,98503.38
2023-05-21T10:00:23.811Z,98504.22
2023-05-21T10:02:50.025Z,98510.38
2023-05-21T10:05:16.239Z,98501.53
2023-05-21T10:07:42.393Z,98510.38
2023-05-21T10:10:08.540Z,98508.53
2023-05-21T10:12:34.717Z,98505.84
2023-05-21T10:15:00.869Z,98493.28
2023-05-21T10:17:27.030Z,98492.47
2023-05-21T10:19:53.369Z,98492.03
2023-05-21T10:22:19.494Z,98491.22
2023-05-21T10:24:45.620Z,98489.34
2023-05-21T10:27:11.784Z,98491.22
2023-05-21T10:29:37.938Z,98492.84
2023-05-21T10:32:04.098Z,98481.13
2023-05-21T10:34:30.296Z,98487.28
2023-05-21T10:36:56.438Z,98491.63
2023-05-21T10:39:22.605Z,98485.44
2023-05-21T10:41:48.749Z,98489.97
2023-05-21T10:44:14.891Z,98480.06
2023-05-21T10:46:41.042Z,98471.03
2023-05-21T10:49:07.212Z,98473.69
2023-05-21T10:51:33.349Z,98464.00
2023-05-21T10:53:59.503Z,98466.69
2023-05-21T10:56:25.671Z,98466.47
2023-05-21T10:58:51.806Z,98475.31
2023-05-21T11:01:17.932Z,98471.63
2023-05-21T11:03:44.274Z,98467.91
2023-05-21T11:06:10.488Z,98468.72
2023-05-21T11:08:36.633Z,98468.53
2023-05-21T11:11:02.784Z,98467.72
2023-05-21T11:13:28.919Z,98457.81
2023-05-21T11:15:55.071Z,98464.81
2023-05-21T11:18:21.218Z,98455.94
2023-05-21T11:20:47.362Z,98460.28
2023-05-21T11:23:13.517Z,98458.44
2023-05-21T11:25:39.694Z,98453.69
2023-05-21T11:28:05.867Z,98447.72
2023-05-21T11:30:33.541Z,98452.84
2023-05-21T11:33:01.492Z,98457.19
2023-05-21T11:35:27.759Z,98448.31
2023-05-21T11:37:53.885Z,98450.16
2023-05-21T11:40:20.031Z,98449.16
2023-05-21T11:42:46.192Z,98452.63
2023-05-21T11:45:12.328Z,98442.75
2023-05-21T11:47:38.616Z,98445.41
2023-05-21T11:50:04.886Z,98443.56
2023-05-21T11:52:31.055Z,98448.91
2023-05-21T11:54:57.648Z,98442.53
2023-05-21T11:57:24.890Z,98441.72
2023-05-21T11:59:51.038Z,98442.53
2023-05-21T12:02:17.216Z,98450.34
2023-05-21T12:04:43.353Z,98442.31
2023-05-21T12:07:11.905Z,98448.50
2023-05-21T12:09:38.068Z,98441.50
2023-05-21T12:12:04.194Z,98447.47
2023-05-21T12:14:30.508Z,98441.28
2023-05-21T12:16:57.023Z,98444.78
2023-05-21T12:19:23.302Z,98440.25
2023-05-21T12:21:49.517Z,98440.03
2023-05-21T12:24:15.735Z,98437.34
2023-05-21T12:26:41.877Z,98432.00
2023-05-21T12:29:08.053Z,98429.31
2023-05-21T12:31:34.275Z,98436.31
2023-05-21T12:34:00.425Z,98437.16
2023-05-21T12:36:26.589Z,98429.94
2023-05-21T12:38:52.807Z,98439.59
2023-05-21T12:41:18.956Z,98436.09
2023-05-21T12:43:45.085Z,98440.41
2023-05-21T12:46:11.272Z,98427.88
2023-05-21T12:48:37.458Z,98426.81
2023-05-21T12:51:07.716Z,98431.16
2023-05-21T12:53:33.910Z,98431.16
2023-05-21T12:56:00.041Z,98421.25
2023-05-21T12:58:26.186Z,98417.53
2023-05-21T13:00:52.388Z,98421.03
2023-05-21T13:03:18.569Z,98424.56
2023-05-21T13:05:46.401Z,98423.69
2023-05-21T13:08:12.552Z,98416.50
2023-05-21T13:10:38.935Z,98419.19
2023-05-21T13:13:05.295Z,98423.50
2023-05-21T13:15:31.476Z,98421.63
2023-05-21T13:17:57.717Z,98422.44
2023-05-21T13:20:23.900Z,98423.06
2023-05-21T13:22:50.100Z,98415.25
2023-05-21T13:25:16.352Z,98424.72
2023-05-21T13:27:42.495Z,98409.66
2023-05-21T13:30:08.714Z,98408.66
2023-05-21T13:32:35.059Z,98407.84
2023-05-21T13:35:01.297Z,98401.44
2023-05-21T13:37:27.439Z,98402.84
2023-05-21T13:39:53.590Z,98403.66
2023-05-21T13:42:19.773Z,98402.25
2023-05-21T13:44:45.958Z,98397.50
2023-05-21T13:47:12.173Z,98385.97
2023-05-21T13:49:38.407Z,98394.00
2023-05-21T13:52:04.583Z,98385.72
2023-05-21T13:54:30.748Z,98391.09
2023-05-21T13:56:56.914Z,98393.75
2023-05-21T13:59:23.118Z,98392.75
2023-05-21T14:01:49.523Z,98389.25
2023-05-21T14:04:18.606Z,98390.88
2023-05-21T14:06:44.779Z,98387.19
2023-05-21T14:09:10.958Z,98386.13
2023-05-21T14:11:37.145Z,98386.13
2023-05-21T14:14:03.307Z,98383.25
2023-05-21T14:16:29.624Z,98384.06
2023-05-21T14:18:55.967Z,98379.53
2023-05-21T14:21:22.180Z,98374.16
2023-05-21T14:23:48.360Z,98373.34
2023-05-21T14:26:14.569Z,98368.59
2023-05-21T14:28:40.788Z,98368.59
2023-05-21T14:31:06.922Z,98358.91
2023-05-21T14:33:33.071Z,98356.81
2023-05-21T14:35:59.246Z,98353.94
2023-05-21T14:38:25.392Z,98358.44
2023-05-21T14:40:51.540Z,98357.63
2023-05-21T14:43:17.700Z,98358.25
2023-05-21T14:45:43.861Z,98356.38
2023-05-21T14:48:10.119Z,98350.00
2023-05-21T14:50:36.333Z,98354.31
2023-05-21T14:53:02.481Z,98358.66
2023-05-21T14:55:28.626Z,98352.44
2023-05-21T14:57:55.226Z,98356.78
2023-05-21T15:00:21.359Z,98351.41
2023-05-21T15:02:47.630Z,98352.25
2023-05-21T15:05:13.869Z,98347.47
2023-05-21T15:07:40.026Z,98354.47
2023-05-21T15:10:06.175Z,98342.72
2023-05-21T15:12:32.338Z,98347.28
2023-05-21T15:14:58.700Z,98336.56
2023-05-21T15:17:24.914Z,98342.28
2023-05-21T15:19:51.091Z,98339.59
2023-05-21T15:22:17.239Z,98329.69
2023-05-21T15:24:43.394Z,98335.06
2023-05-21T15:27:09.571Z,98339.41
2023-05-21T15:29:35.693Z,98336.47
2023-05-21T15:32:01.821Z,98332.81
2023-05-21T15:34:28.061Z,98332.97
2023-05-21T15:36:54.280Z,98338.97
2023-05-21T15:39:20.433Z,98336.31
2023-05-21T15:41:46.781Z,98330.72
2023-05-21T15:44:12.947Z,98333.41
2023-05-21T15:46:39.168Z,98335.03
2023-05-21T15:49:05.424Z,98334.00
2023-05-21T15:51:31.609Z,98328.63
2023-05-21T15:53:57.755Z,98330.28
2023-05-21T15:56:23.957Z,98336.47
2023-05-21T15:58:50.100Z,98331.91
2023-05-21T16:01:16.282Z,98329.22
2023-05-21T16:03:42.553Z,98327.38
2023-05-21T16:06:08.696Z,98329.84
2023-05-21T16:08:34.835Z,98331.50
2023-05-21T16:11:01.022Z,98325.28
2023-05-21T16:13:27.180Z,98329.63
2023-05-21T16:15:53.319Z,98323.47
2023-05-21T16:18:19.517Z,98327.75
2023-05-21T16:20:45.660Z,98325.09
2023-05-21T16:23:11.791Z,98326.72
2023-05-21T16:25:38.235Z,98320.31
2023-05-21T16:28:04.482Z,98324.88
2023-05-21T16:30:30.657Z,98321.13
2023-05-21T16:32:56.887Z,98310.22
2023-05-21T16:35:23.080Z,98311.22
2023-05-21T16:37:49.234Z,98306.47
2023-05-21T16:40:15.396Z,98305.44
2023-05-21T16:42:41.555Z,98303.78
2023-05-21T16:45:09.843Z,98300.09
2023-05-21T16:47:36.053Z,98296.34
2023-05-21T16:50:02.208Z,98296.34
2023-05-21T16:52:28.369Z,98297.97
2023-05-21T16:54:54.545Z,98292.63
2023-05-21T16:57:20.700Z,98296.97
2023-05-21T16:59:46.836Z,98297.16
2023-05-21T17:02:13.216Z,98296.16
2023-05-21T17:04:39.362Z,98298.59
2023-05-21T17:07:05.502Z,98299.63
2023-05-21T17:09:31.739Z,98305.59
2023-05-21T17:11:57.890Z,98310.97
2023-05-21T17:14:33.657Z,98308.03
2023-05-21T17:17:00.766Z,98311.31
2023-05-21T17:19:27.134Z,98315.28
2023-05-21T17:21:53.289Z,98309.91
2023-05-21T17:24:19.470Z,98312.38
2023-05-21T17:26:45.623Z,98315.66
2023-05-21T17:29:12.344Z,98312.38
2023-05-21T17:31:38.946Z,98313.19
2023-05-21T17:34:05.246Z,98309.69
2023-05-21T17:36:32.232Z,98314.81
2023-05-21T17:38:58.958Z,98308.44
2023-05-21T17:41:25.113Z,98314.63
2023-05-21T17:43:51.260Z,98313.56
2023-05-21T17:46:17.449Z,98302.84
2023-05-21T17:48:43.628Z,98315.44
2023-05-21T17:51:09.771Z,98314.63
2023-05-21T17:53:35.925Z,98323.47
2023-05-21T17:56:02.076Z,98314.41
2023-05-21T17:58:28.227Z,98323.25
2023-05-21T18:00:54.487Z,98319.75
2023-05-21T18:03:20.670Z,98326.75
2023-05-21T18:05:46.816Z,98320.59
2023-05-21T18:08:13.001Z,98320.59
2023-05-21T18:10:39.145Z,98318.72
2023-05-21T18:13:05.301Z,98326.75
2023-05-21T18:15:31.462Z,98326.75
2023-05-21T18:17:57.629Z,98327.56
2023-05-21T18:20:23.788Z,98318.50
2023-05-21T18:22:49.968Z,98324.88
2023-05-21T18:25:29.629Z,98322.22
2023-05-21T18:27:55.791Z,98334.59
2023-05-21T18:30:22.063Z,98333.75
2023-05-21T18:32:48.334Z,98329.22
2023-05-21T18:35:16.660Z,98333.53
2023-05-21T18:37:43.073Z,98330.84
2023-05-21T18:40:09.222Z,98324.88
2023-05-21T18:42:35.412Z,98324.69
2023-05-21T18:45:01.561Z,98323.88
2023-05-21T18:47:27.747Z,98324.69
2023-05-21T18:49:53.945Z,98318.50
2023-05-21T18:52:20.098Z,98330.84
2023-05-21T18:54:46.245Z,98337.03
2023-05-21T18:57:12.392Z,98339.72
2023-05-21T18:59:38.537Z,98333.31
2023-05-21T19:02:04.868Z,98342.19
2023-05-21T19:04:31.131Z,98343.25
2023-05-21T19:06:57.276Z,98355.38
2023-05-21T19:09:23.536Z,98358.06
2023-05-21T19:11:49.706Z,98365.25
2023-05-21T19:14:15.882Z,98373.31
2023-05-21T19:16:42.098Z,98369.59
2023-05-21T19:19:08.406Z,98376.84
2023-05-21T19:21:34.584Z,98399.09
2023-05-21T19:24:01.059Z,98393.75
2023-05-21T19:26:27.421Z,98391.06
2023-05-21T19:28:53.967Z,98386.31
2023-05-21T19:31:20.211Z,98396.19
2023-05-21T19:33:46.546Z,98407.75
2023-05-21T19:36:12.840Z,98407.75
2023-05-21T19:38:38.981Z,98406.72
2023-05-21T19:41:05.228Z,98409.59
2023-05-21T19:43:31.371Z,98405.91
2023-05-21T19:45:57.570Z,98402.16
2023-05-21T19:48:23.807Z,98400.53
2023-05-21T19:50:49.932Z,98407.53
2023-05-21T19:53:16.077Z,98417.44
2023-05-21T19:55:42.215Z,98418.25
2023-05-21T19:58:08.379Z,98418.25
2023-05-21T20:00:34.520Z,98420.13
2023-05-21T20:03:00.783Z,98408.56
2023-05-21T20:05:26.935Z,98414.97
2023-05-21T20:07:53.062Z,98421.16
2023-05-21T20:10:19.349Z,98426.28
2023-05-21T20:12:45.541Z,98421.97
2023-05-21T20:15:11.714Z,98400.53
2023-05-21T20:17:37.927Z,98416.63
2023-05-21T20:20:04.092Z,98411.25
2023-05-21T20:22:30.218Z,98419.31
2023-05-21T20:24:56.378Z,98419.31
2023-05-21T20:27:22.521Z,98419.31
2023-05-21T20:29:48.660Z,98411.25
2023-05-21T20:32:14.828Z,98416.63
2023-05-21T20:34:54.228Z,98414.75
2023-05-21T20:37:27.169Z,98405.91
2023-05-21T20:39:53.313Z,98403.22
2023-05-21T20:42:19.465Z,98403.22
2023-05-21T20:44:45.656Z,98413.94
2023-05-21T20:47:11.824Z,98401.34
2023-05-21T20:49:37.985Z,98383.38
2023-05-21T20:52:04.164Z,98380.94
2023-05-21T20:54:30.304Z,98383.63
2023-05-21T20:56:56.446Z,98368.34
2023-05-21T20:59:22.780Z,98356.81
2023-05-21T21:01:49.244Z,98358.63
2023-05-21T21:04:15.460Z,98353.28
2023-05-21T21:06:41.638Z,98368.34
2023-05-21T21:09:07.800Z,98366.47
2023-05-21T21:11:33.952Z,98364.84
2023-05-21T21:14:00.126Z,98366.69
2023-05-21T21:16:26.344Z,98360.50
2023-05-21T21:18:52.654Z,98381.75
2023-05-21T21:21:18.847Z,98372.06
2023-05-21T21:23:44.983Z,98371.25
2023-05-21T21:26:11.131Z,98379.88
2023-05-21T21:28:37.311Z,98376.38
2023-05-21T21:31:03.446Z,98376.38
2023-05-21T21:33:29.626Z,98371.25
2023-05-21T21:35:55.825Z,98372.06
2023-05-21T21:38:22.185Z,98368.56
2023-05-21T21:40:48.413Z,98367.53
2023-05-21T21:43:14.841Z,98364.84
2023-05-21T21:45:41.148Z,98366.69
2023-05-21T21:48:07.376Z,98372.66
2023-05-21T21:50:33.570Z,98365.66
2023-05-21T21:52:59.721Z,98366.47
2023-05-21T21:55:25.872Z,98373.72
2023-05-21T21:57:52.038Z,98372.06
2023-05-21T22:00:18.186Z,98372.06
2023-05-21T22:02:44.337Z,98372.06
2023-05-21T22:05:10.503Z,98380.09
2023-05-21T22:07:36.648Z,98368.34
2023-05-21T22:10:02.793Z,98375.34
2023-05-21T22:12:29.125Z,98372.28
2023-05-21T22:14:55.304Z,98364.25
2023-05-21T22:17:21.511Z,98366.69
2023-05-21T22:19:47.700Z,98370.22
2023-05-21T22:22:13.826Z,98368.56
2023-05-21T22:24:40.004Z,98362.16
2023-05-21T22:27:06.195Z,98368.34
2023-05-21T22:29:32.328Z,98369.38
2023-05-21T22:31:58.465Z,98370.22
2023-05-21T22:34:24.638Z,98370.22
2023-05-21T22:36:50.783Z,98364.00
2023-05-21T22:39:16.922Z,98359.91
2023-05-21T22:41:43.064Z,98358.88
2023-05-21T22:44:09.213Z,98356.41
2023-05-21T22:46:35.465Z,98358.88
2023-05-21T22:49:01.746Z,98352.69
2023-05-21T22:51:27.906Z,98355.38
2023-05-21T22:53:55.405Z,98351.84
2023-05-21T22:56:21.558Z,98349.41
2023-05-21T22:58:47.700Z,98349.41
2023-05-21T23:01:13.847Z,98340.56
2023-05-21T23:03:39.997Z,98343.81
2023-05-21T23:06:06.159Z,98351.84
2023-05-21T23:08:32.343Z,98351.84
2023-05-21T23:10:58.498Z,98352.69
2023-05-21T23:13:24.652Z,98341.97
2023-05-21T23:15:50.818Z,98351.84
2023-05-21T23:18:17.013Z,98340.31
2023-05-21T23:20:43.243Z,98351.03
2023-05-21T23:23:09.424Z,98346.75
2023-05-21T23:25:35.577Z,98341.13
2023-05-21T23:28:01.722Z,98335.75
2023-05-21T23:30:27.991Z,98335.19
2023-05-21T23:32:54.170Z,98334.94
2023-05-21T23:35:20.364Z,98331.66
2023-05-21T23:37:46.537Z,98322.59
2023-05-21T23:40:12.722Z,98323.41
2023-05-21T23:42:38.857Z,98326.91
2023-05-21T23:45:05.019Z,98331.47
2023-05-21T23:47:31.180Z,98337.63
2023-05-21T23:49:57.319Z,98324.22
2023-05-21T23:52:23.461Z,98329.59
2023-05-21T23:54:49.633Z,98332.28
2023-05-21T23:57:15.775Z,98324.22
2023-05-21T23:59:41.914Z,98328.78
